Landels-Hill Big Creek Reserve Entrance, California Weather observations

Data are for 10 minute period ending at time listed.
 Day   Time   Solar   Ave.   Ave.  Ave.  Vector  Max.   Baro.   Total    
  of    of     Rad.   Air    Rel.  Wind   Wind   Wind  Press.  Precip.   
Year   Day            Temp.  Hum.  Speed  Dir.   Gust                    
2016   (PST)  Kw/m2    F      %     mph   deg.    mph    mb.     in.     
-------------------------------------------------------------------------
 150   14:30   0.46   61.5    75    1.2   210     3.1   1013.4    0.00 
 150   14:40   0.42   61.8    74    1.0   242     3.2   1013.4    0.00 
 150   14:50   0.36   61.3    75    1.3   207     3.0   1013.3    0.00 
 150   15:00   0.34   61.0    76    1.2   193     3.4   1013.2    0.00 
 150   15:10   0.30   61.0    76    1.2   230     5.1   1013.2    0.00 
 150   15:20   0.26   60.1    77    2.0   181     6.8   1013.2    0.00 
 150   15:30   0.24   59.9    78    1.6   198     4.5   1013.0    0.00 
 150   15:40   0.22   59.4    79    2.5   178     5.1   1012.8    0.00 
 150   15:50   0.22   58.9    81    2.5   179     5.8   1012.5    0.00 
 150   16:00   0.22   58.7    81    2.5   174     4.7   1012.4    0.00 
 150   16:10   0.20   58.1    83    4.2   170     7.5   1012.3    0.00 
 150   16:20   0.17   58.0    83    3.8   178     8.3   1012.2    0.00 
 150   16:30   0.13   58.0    83    3.9   138    10.3   1012.3    0.00 
 150   16:40   0.10   57.1    86    3.4    81     9.4   1012.4    0.00 
 150   16:50   0.10   57.1    86    2.9   187     7.0   1012.3    0.00 
 150   17:00   0.10   57.2    85    3.8   168     8.0   1012.2    0.00 
 150   17:10   0.10   57.3    84    2.9   175     6.6   1012.2    0.00 
 150   17:20   0.09   57.3    82    3.6   167     8.3   1012.0    0.00 
 150   17:30   0.08   57.3    81    3.1   147    10.4   1011.9    0.00 
 150   17:40   0.08   57.4    80    2.8    69     6.6   1011.9    0.00 
 150   17:50   0.07   57.1    80    4.0   163     9.1   1011.9    0.00 
 150   18:00   0.06   57.2    80    2.5    60    10.4   1012.0    0.00 
 150   18:10   0.04   57.1    80    2.5    79     7.0   1012.1    0.00 
 150   18:20   0.04   57.0    80    2.1   164     7.2   1012.2    0.00 
 150   18:30   0.03   56.8    80    2.2   160     6.4   1012.2    0.00 
 150   18:40   0.03   56.8    80    2.3    79     6.4   1012.3    0.00 
 150   18:50   0.01   56.6    80    3.3    45     7.0   1012.3    0.00 
 150   19:00   0.01   56.3    81    3.1    66     6.9   1012.4    0.00 
 150   19:10   0.01   56.2    81    1.8    78     5.5   1012.4    0.00 
 150   19:20   0.01   56.4    81    1.3    20     4.4   1012.5    0.00 
 150   19:30   0.00   56.2    81    2.2    37     6.1   1012.6    0.00 
 150   19:40   0.00   56.1    82    2.2    39     5.0   1012.6    0.00 
 150   19:50   0.00   56.0    82    1.4    36     4.3   1012.7    0.00 
 150   20:00   0.00   55.8    83    0.9    47     3.4   1012.7    0.00 
 150   20:10   0.00   55.5    84    1.9    50     6.2   1012.8    0.00 
 150   20:20   0.00   55.2    85    1.3    36     5.2   1012.8    0.00 
 150   20:30   0.00   55.2    85    1.3   104     4.5   1012.8    0.00 
 150   20:40   0.00   55.1    85    2.0    58     5.6   1013.0    0.00 
 150   20:50   0.00   54.9    85    2.5    50     5.6   1013.2    0.00 
 150   21:00   0.00   54.8    86    2.2   122     5.9   1013.2    0.00 
 150   21:10   0.00   54.8    86    1.8    37     3.4   1013.4    0.00 
 150   21:20   0.00   54.7    86    2.1    45     4.9   1013.6    0.00 
 150   21:30   0.00   54.6    86    1.3    61     3.2   1013.6    0.00 
 150   21:40   0.00   54.7    87    0.9    61     2.9   1013.7    0.00 
 150   21:50   0.00   54.5    87    2.2    83     5.0   1013.8    0.00 
 150   22:00   0.00   54.4    88    2.1   143     5.5   1013.8    0.00 
 150   22:10   0.00   54.1    88    3.3   112     5.8   1013.8    0.00 
 150   22:20   0.00   53.7    89    2.9   138     6.5   1013.7    0.00 
 150   22:30   0.00   53.6    90    2.5   144     6.3   1013.7    0.00 
 150   22:40   0.00   53.3    90    2.5   162     5.6   1013.7    0.00 
 150   22:50   0.00   53.3    91    2.4    88     9.1   1013.7    0.00 
 150   23:00   0.00   53.2    91    3.1   147     8.3   1013.7    0.00 
 150   23:10   0.00   53.3    91    2.0   146     5.4   1013.7    0.00 
 150   23:20   0.00   53.1    92    3.3   163     5.7   1013.6    0.00 
 150   23:30   0.00   53.0    92    3.5   148     5.3   1013.6    0.00 
 150   23:40   0.00   53.0    93    2.8    95     5.5   1013.7    0.00 
 150   23:50   0.00   53.0    93    1.4   157     4.0   1013.6    0.00 
 151    0:00   0.00   53.1    93    1.5   168     4.4   1013.3    0.00 
 151    0:10   0.00   53.1    93    1.3   122     2.9   1013.4    0.00 
 151    0:20   0.00   53.0    93    1.6   107     3.7   1013.3    0.00 
 151    0:30   0.00   53.0    93    1.1   166     4.0   1013.2    0.00 
 151    0:40   0.00   53.0    93    2.7   137     5.3   1013.3    0.00 
 151    0:50   0.00   52.9    93    2.3   128     4.5   1013.3    0.00 
 151    1:00   0.00   52.9    93    2.1   176     3.9   1013.4    0.00 
 151    1:10   0.00   52.9    93    2.1   173     4.6   1013.2    0.00 
 151    1:20   0.00   52.8    93    0.8   151     2.9   1013.2    0.00 
 151    1:30   0.00   52.8    93    0.9   139     3.4   1013.2    0.00 
 151    1:40   0.00   52.7    93    1.0   182     2.8   1013.1    0.00 
 151    1:50   0.00   52.9    93    0.5   159     2.6   1013.0    0.00 
 151    2:00   0.00   52.7    93    0.9   151     1.8   1012.8    0.00 
 151    2:10   0.00   52.6    93    1.2   145     2.5   1012.8    0.00 
 151    2:20   0.00   52.6    93    1.1   159     2.3   1012.8    0.00 
 151    2:30   0.00   52.4    93    1.4   105     3.2   1012.8    0.00 
 151    2:40   0.00   52.3    93    1.4   137     3.8   1012.8    0.00 
 151    2:50   0.00   52.4    93    1.9   168     4.7   1012.7    0.00 
 151    3:00   0.00   52.3    93    0.9   189     3.5   1012.7    0.00 
 151    3:10   0.00   52.3    93    0.5   121     1.7   1012.7    0.00 
 151    3:20   0.00   52.2    93    1.5   141     3.2   1012.7    0.00 
 151    3:30   0.00   52.3    93    0.1   151     1.3   1012.6    0.00 
 151    3:40   0.00   52.3    93    0.0   245     0.4   1012.6    0.00 
 151    3:50   0.00   52.3    93    0.1   300     1.5   1012.6    0.00 
 151    4:00   0.00   52.3    93    0.2   214     1.1   1012.5    0.00 
 151    4:10   0.00   52.1    93    0.7    34     2.8   1012.5    0.00 
 151    4:20   0.00   51.8    93    0.5     8     1.7   1012.5    0.00 
 151    4:30   0.00   51.8    92    0.2   352     2.9   1012.5    0.00 
 151    4:40   0.00   51.7    92    0.6   346     2.2   1012.5    0.00 
 151    4:50   0.00   51.7    92    0.6   359     2.1   1012.6    0.00 
 151    5:00   0.00   51.7    92    0.7    15     2.9   1012.7    0.00 
 151    5:10   0.01   51.6    92    0.8   349     2.4   1012.7    0.00 
 151    5:20   0.01   51.5    92    0.4   310     2.7   1012.8    0.00 
 151    5:30   0.01   51.6    92    0.4     6     1.9   1012.9    0.00 
 151    5:40   0.01   51.6    92    0.4     2     1.7   1013.0    0.00 
 151    5:50   0.03   51.6    92    0.8     7     2.9   1013.1    0.00 
 151    6:00   0.03   51.7    92    0.6   351     2.6   1013.2    0.00 
 151    6:10   0.04   51.7    92    0.8   350     2.6   1013.2    0.00 
 151    6:20   0.05   51.7    92    0.4   358     1.9   1013.2    0.00 
 151    6:30   0.05   51.9    91    0.5   356     2.3   1013.3    0.00 
 151    6:40   0.07   52.1    91    0.3   335     1.6   1013.2    0.00 
 151    6:50   0.09   52.5    91    0.1   250     0.9   1013.2    0.00 
 151    7:00   0.09   52.7    91    0.6   202     2.0   1013.2    0.00 
 151    7:10   0.09   52.7    90    0.5   245     2.0   1013.2    0.00 
 151    7:20   0.10   52.6    90    0.6   194     2.3   1013.2    0.00 
 151    7:30   0.10   52.6    90    0.6   220     1.9   1013.3    0.00 
 151    7:40   0.10   52.8    90    0.3   157     1.8   1013.3    0.00 
 151    7:50   0.11   53.0    90    0.8   195     2.8   1013.3    0.00 
 151    8:00   0.12   52.8    90    0.3   234     2.0   1013.2    0.00 
 151    8:10   0.13   53.2    90    0.6   168     2.2   1013.3    0.00 
 151    8:20   0.14   53.2    89    0.7   174     3.1   1013.3    0.00 
 151    8:30   0.16   53.3    89    0.5   215     1.8   1013.3    0.00 
 151    8:40   0.17   53.3    88    0.9   214     3.1   1013.3    0.00 
 151    8:50   0.18   53.5    88    1.2   206     2.3   1013.4    0.00 
 151    9:00   0.19   54.0    88    0.7   209     2.2   1013.5    0.00 
 151    9:10   0.22   54.1    86    0.9   223     2.9   1013.5    0.00 
 151    9:20   0.23   54.5    86    0.9   206     2.8   1013.5    0.00 
 151    9:30   0.23   54.1    86    1.5   255     4.2   1013.4    0.00 
 151    9:40   0.25   54.3    86    1.4   245     4.0   1013.5    0.00 
 151    9:50   0.24   54.7    86    1.2   234     3.4   1013.5    0.00 
 151   10:00   0.29   54.8    85    1.3   225     3.4   1013.6    0.00 
 151   10:10   0.31   54.6    85    1.1   245     3.3   1013.6    0.00 
 151   10:20   0.35   54.9    84    1.4   228     3.3   1013.5    0.00 
 151   10:30   0.38   55.3    84    1.1   246     4.2   1013.4    0.00 
 151   10:40   0.39   56.0    82    1.1   235     4.0   1013.4    0.00 
 151   10:50   0.36   55.2    83    2.0   248     4.7   1013.5    0.00 
 151   11:00   0.37   55.7    83    1.1   230     4.3   1013.6    0.00 
 151   11:10   0.41   56.5    81    1.2   231     3.1   1013.6    0.00 
 151   11:20   0.43   56.4    81    1.5   238     4.1   1013.5    0.00 
 151   11:30   0.46   56.2    81    1.7   233     3.6   1013.4    0.00 
 151   11:40   0.46   56.4    81    1.2   143     2.9   1013.4    0.00 
 151   11:50   0.50   57.2    79    1.3   192     3.6   1013.4    0.00 
 151   12:00   0.54   57.0    79    1.2   132     3.1   1013.5    0.00 
 151   12:10   0.68   56.7    80    1.7   326     4.5   1013.4    0.00 
 151   12:20   0.85   57.8    78    1.6   219     5.6   1013.4    0.00 
 151   12:30   0.84   58.8    76    1.8   203     4.4   1013.5    0.00 
 151   12:40   0.81   60.0    72    1.5   327     3.8   1013.6    0.00 
 151   12:50   0.92   60.4    71    1.6   149     4.8   1013.6    0.00 
 151   13:00   0.98   59.3    74    1.6   246     5.3   1013.5    0.00 
 151   13:10   0.88   58.8    74    2.0   315     5.9   1013.5    0.00 
 151   13:20   0.98   58.9    74    1.9   252     5.3   1013.3    0.00 
 151   13:30   1.04   60.2    72    1.8   187     5.8   1013.2    0.00 
 151   13:40   0.98   60.0    72    1.8   231     5.7   1013.2    0.00 
 151   13:50   0.70   57.9    76    2.9    76     7.5   1013.2    0.00 
 151   14:00   0.85   57.7    78    1.9   147     5.1   1013.1    0.00 
 151   14:10   0.94   58.1    76    2.1   102     5.3   1013.0    0.00 
 151   14:20   0.93   58.4    76    2.0   356     5.1   1013.0    0.00 

Return to Big Creek Reserve Entrance graphs page.


Western Regional Climate Center,wrcc@dri.edu